sensor_id;sensor_type;location;lat;lon;timestamp;P1;durP1;ratioP1;P2;durP2;ratioP2
10295;SDS011;5193;51.032;6.356;2023-03-05T00:01:20;4.47;;;1.00;;
10295;SDS011;5193;51.032;6.356;2023-03-05T00:03:48;7.23;;;1.27;;
10295;SDS011;5193;51.032;6.356;2023-03-05T00:06:16;5.60;;;1.37;;
10295;SDS011;5193;51.032;6.356;2023-03-05T00:08:42;3.33;;;1.43;;
10295;SDS011;5193;51.032;6.356;2023-03-05T00:11:09;4.17;;;1.13;;
10295;SDS011;5193;51.032;6.356;2023-03-05T00:13:36;5.47;;;1.30;;
10295;SDS011;5193;51.032;6.356;2023-03-05T00:16:06;7.07;;;1.23;;
10295;SDS011;5193;51.032;6.356;2023-03-05T00:18:34;4.27;;;1.10;;
10295;SDS011;5193;51.032;6.356;2023-03-05T00:21:00;4.67;;;1.10;;
10295;SDS011;5193;51.032;6.356;2023-03-05T00:23:26;5.50;;;1.13;;
10295;SDS011;5193;51.032;6.356;2023-03-05T00:25:52;1.97;;;0.93;;
10295;SDS011;5193;51.032;6.356;2023-03-05T00:28:17;4.47;;;0.70;;
10295;SDS011;5193;51.032;6.356;2023-03-05T00:30:43;3.23;;;0.97;;
10295;SDS011;5193;51.032;6.356;2023-03-05T00:33:09;3.83;;;1.27;;
10295;SDS011;5193;51.032;6.356;2023-03-05T00:35:40;4.87;;;1.23;;
10295;SDS011;5193;51.032;6.356;2023-03-05T00:38:07;3.63;;;1.10;;
10295;SDS011;5193;51.032;6.356;2023-03-05T00:40:36;4.83;;;1.47;;
10295;SDS011;5193;51.032;6.356;2023-03-05T00:43:03;6.20;;;1.30;;
10295;SDS011;5193;51.032;6.356;2023-03-05T00:45:29;7.40;;;1.13;;
10295;SDS011;5193;51.032;6.356;2023-03-05T00:47:55;3.03;;;0.80;;
10295;SDS011;5193;51.032;6.356;2023-03-05T00:50:20;3.80;;;1.10;;
10295;SDS011;5193;51.032;6.356;2023-03-05T00:52:46;4.33;;;1.30;;
10295;SDS011;5193;51.032;6.356;2023-03-05T00:55:11;4.77;;;1.10;;
10295;SDS011;5193;51.032;6.356;2023-03-05T00:57:37;3.87;;;0.77;;
10295;SDS011;5193;51.032;6.356;2023-03-05T01:00:03;6.13;;;1.30;;
10295;SDS011;5193;51.032;6.356;2023-03-05T01:02:30;9.90;;;1.00;;
10295;SDS011;5193;51.032;6.356;2023-03-05T01:04:55;8.23;;;1.03;;
10295;SDS011;5193;51.032;6.356;2023-03-05T01:07:21;6.73;;;1.17;;
10295;SDS011;5193;51.032;6.356;2023-03-05T01:09:47;4.33;;;0.90;;
10295;SDS011;5193;51.032;6.356;2023-03-05T01:12:12;4.17;;;0.97;;
10295;SDS011;5193;51.032;6.356;2023-03-05T01:14:38;5.10;;;1.10;;
10295;SDS011;5193;51.032;6.356;2023-03-05T01:17:03;6.50;;;1.47;;
10295;SDS011;5193;51.032;6.356;2023-03-05T01:19:29;3.03;;;1.10;;
10295;SDS011;5193;51.032;6.356;2023-03-05T01:21:55;4.03;;;1.47;;
10295;SDS011;5193;51.032;6.356;2023-03-05T01:24:21;6.83;;;1.80;;
10295;SDS011;5193;51.032;6.356;2023-03-05T01:26:46;6.77;;;1.70;;
10295;SDS011;5193;51.032;6.356;2023-03-05T01:29:13;5.33;;;1.83;;
10295;SDS011;5193;51.032;6.356;2023-03-05T01:31:39;6.60;;;1.80;;
10295;SDS011;5193;51.032;6.356;2023-03-05T01:34:04;9.43;;;1.73;;
10295;SDS011;5193;51.032;6.356;2023-03-05T01:36:30;7.10;;;1.57;;
10295;SDS011;5193;51.032;6.356;2023-03-05T01:38:56;8.90;;;2.07;;
10295;SDS011;5193;51.032;6.356;2023-03-05T01:41:21;6.50;;;1.50;;
10295;SDS011;5193;51.032;6.356;2023-03-05T01:43:47;6.87;;;1.93;;
10295;SDS011;5193;51.032;6.356;2023-03-05T01:46:20;10.27;;;1.70;;
10295;SDS011;5193;51.032;6.356;2023-03-05T01:48:47;8.07;;;1.70;;
10295;SDS011;5193;51.032;6.356;2023-03-05T01:51:18;10.20;;;1.77;;
10295;SDS011;5193;51.032;6.356;2023-03-05T01:53:46;6.83;;;1.87;;
10295;SDS011;5193;51.032;6.356;2023-03-05T01:56:12;6.50;;;1.63;;
10295;SDS011;5193;51.032;6.356;2023-03-05T01:58:37;6.77;;;1.90;;
10295;SDS011;5193;51.032;6.356;2023-03-05T02:01:04;5.70;;;1.53;;
10295;SDS011;5193;51.032;6.356;2023-03-05T02:03:29;10.10;;;1.50;;
10295;SDS011;5193;51.032;6.356;2023-03-05T02:05:57;4.83;;;1.30;;
10295;SDS011;5193;51.032;6.356;2023-03-05T02:08:22;10.60;;;1.70;;
10295;SDS011;5193;51.032;6.356;2023-03-05T02:10:52;10.33;;;1.67;;
10295;SDS011;5193;51.032;6.356;2023-03-05T02:13:24;7.90;;;1.60;;
10295;SDS011;5193;51.032;6.356;2023-03-05T02:15:52;8.20;;;1.67;;
10295;SDS011;5193;51.032;6.356;2023-03-05T02:18:19;7.87;;;1.83;;
10295;SDS011;5193;51.032;6.356;2023-03-05T02:20:50;3.80;;;1.53;;
10295;SDS011;5193;51.032;6.356;2023-03-05T02:23:16;5.73;;;1.60;;
10295;SDS011;5193;51.032;6.356;2023-03-05T02:25:43;6.87;;;1.60;;
10295;SDS011;5193;51.032;6.356;2023-03-05T02:30:48;6.00;;;1.57;;
10295;SDS011;5193;51.032;6.356;2023-03-05T02:33:14;6.83;;;1.50;;
10295;SDS011;5193;51.032;6.356;2023-03-05T02:35:41;3.83;;;1.63;;
10295;SDS011;5193;51.032;6.356;2023-03-05T02:38:13;7.17;;;2.70;;
10295;SDS011;5193;51.032;6.356;2023-03-05T02:40:40;9.20;;;2.93;;
10295;SDS011;5193;51.032;6.356;2023-03-05T02:43:06;8.70;;;1.93;;
10295;SDS011;5193;51.032;6.356;2023-03-05T02:45:32;8.57;;;1.73;;
10295;SDS011;5193;51.032;6.356;2023-03-05T02:47:58;5.93;;;1.60;;
10295;SDS011;5193;51.032;6.356;2023-03-05T02:50:24;3.67;;;1.10;;
10295;SDS011;5193;51.032;6.356;2023-03-05T02:52:51;8.60;;;1.30;;
10295;SDS011;5193;51.032;6.356;2023-03-05T02:55:17;3.33;;;1.47;;
10295;SDS011;5193;51.032;6.356;2023-03-05T02:57:42;3.77;;;1.40;;
10295;SDS011;5193;51.032;6.356;2023-03-05T03:00:08;5.63;;;1.37;;
10295;SDS011;5193;51.032;6.356;2023-03-05T03:02:34;3.13;;;1.30;;
10295;SDS011;5193;51.032;6.356;2023-03-05T03:05:00;7.17;;;1.70;;
10295;SDS011;5193;51.032;6.356;2023-03-05T03:07:25;6.63;;;1.20;;
10295;SDS011;5193;51.032;6.356;2023-03-05T03:09:51;6.40;;;1.60;;
10295;SDS011;5193;51.032;6.356;2023-03-05T03:12:16;8.90;;;1.97;;
10295;SDS011;5193;51.032;6.356;2023-03-05T03:14:42;6.00;;;1.50;;
10295;SDS011;5193;51.032;6.356;2023-03-05T03:17:08;6.30;;;2.00;;
10295;SDS011;5193;51.032;6.356;2023-03-05T03:19:36;7.87;;;2.17;;
10295;SDS011;5193;51.032;6.356;2023-03-05T03:22:02;7.70;;;1.80;;
10295;SDS011;5193;51.032;6.356;2023-03-05T03:24:31;8.53;;;1.77;;
10295;SDS011;5193;51.032;6.356;2023-03-05T03:26:57;8.13;;;1.93;;
10295;SDS011;5193;51.032;6.356;2023-03-05T03:29:23;9.03;;;1.80;;
10295;SDS011;5193;51.032;6.356;2023-03-05T03:31:48;5.63;;;1.70;;
10295;SDS011;5193;51.032;6.356;2023-03-05T03:34:14;11.20;;;2.43;;
10295;SDS011;5193;51.032;6.356;2023-03-05T03:36:41;7.87;;;1.47;;
10295;SDS011;5193;51.032;6.356;2023-03-05T03:39:08;11.13;;;1.93;;
10295;SDS011;5193;51.032;6.356;2023-03-05T03:41:34;8.87;;;1.67;;
10295;SDS011;5193;51.032;6.356;2023-03-05T03:44:01;6.37;;;1.53;;
10295;SDS011;5193;51.032;6.356;2023-03-05T03:46:27;7.20;;;1.70;;
10295;SDS011;5193;51.032;6.356;2023-03-05T03:48:53;10.17;;;1.93;;
10295;SDS011;5193;51.032;6.356;2023-03-05T03:51:19;5.70;;;2.13;;
10295;SDS011;5193;51.032;6.356;2023-03-05T03:53:44;8.33;;;1.77;;
10295;SDS011;5193;51.032;6.356;2023-03-05T03:56:10;8.57;;;2.27;;
10295;SDS011;5193;51.032;6.356;2023-03-05T03:58:35;6.70;;;1.87;;
10295;SDS011;5193;51.032;6.356;2023-03-05T04:01:01;8.33;;;2.50;;
10295;SDS011;5193;51.032;6.356;2023-03-05T04:03:27;6.90;;;1.63;;
10295;SDS011;5193;51.032;6.356;2023-03-05T04:05:52;8.43;;;2.17;;
10295;SDS011;5193;51.032;6.356;2023-03-05T04:08:18;9.73;;;2.60;;
10295;SDS011;5193;51.032;6.356;2023-03-05T04:10:43;7.47;;;1.97;;
10295;SDS011;5193;51.032;6.356;2023-03-05T04:13:09;10.50;;;2.13;;
10295;SDS011;5193;51.032;6.356;2023-03-05T04:15:34;10.47;;;2.30;;
10295;SDS011;5193;51.032;6.356;2023-03-05T04:18:00;7.20;;;2.60;;
10295;SDS011;5193;51.032;6.356;2023-03-05T04:20:25;11.20;;;2.00;;
10295;SDS011;5193;51.032;6.356;2023-03-05T04:22:51;10.90;;;2.40;;
10295;SDS011;5193;51.032;6.356;2023-03-05T04:25:17;9.67;;;2.10;;
10295;SDS011;5193;51.032;6.356;2023-03-05T04:27:42;13.77;;;2.70;;
10295;SDS011;5193;51.032;6.356;2023-03-05T04:30:08;11.03;;;2.47;;
10295;SDS011;5193;51.032;6.356;2023-03-05T04:32:37;7.37;;;2.17;;
10295;SDS011;5193;51.032;6.356;2023-03-05T04:35:02;7.87;;;2.20;;
10295;SDS011;5193;51.032;6.356;2023-03-05T04:37:28;6.60;;;2.10;;
10295;SDS011;5193;51.032;6.356;2023-03-05T04:39:54;10.33;;;1.90;;
10295;SDS011;5193;51.032;6.356;2023-03-05T04:42:19;12.83;;;2.33;;
10295;SDS011;5193;51.032;6.356;2023-03-05T04:44:48;8.87;;;2.10;;
10295;SDS011;5193;51.032;6.356;2023-03-05T04:47:14;7.57;;;2.60;;
10295;SDS011;5193;51.032;6.356;2023-03-05T04:49:40;9.50;;;2.13;;
10295;SDS011;5193;51.032;6.356;2023-03-05T04:52:06;3.20;;;1.77;;
10295;SDS011;5193;51.032;6.356;2023-03-05T04:54:32;4.80;;;1.77;;
10295;SDS011;5193;51.032;6.356;2023-03-05T04:56:58;9.80;;;2.17;;
10295;SDS011;5193;51.032;6.356;2023-03-05T04:59:23;11.00;;;2.50;;
10295;SDS011;5193;51.032;6.356;2023-03-05T05:01:49;7.80;;;2.20;;
10295;SDS011;5193;51.032;6.356;2023-03-05T05:04:14;12.77;;;2.90;;
10295;SDS011;5193;51.032;6.356;2023-03-05T05:06:40;9.10;;;2.50;;
10295;SDS011;5193;51.032;6.356;2023-03-05T05:09:06;11.03;;;3.10;;
10295;SDS011;5193;51.032;6.356;2023-03-05T05:11:31;7.00;;;2.40;;
10295;SDS011;5193;51.032;6.356;2023-03-05T05:13:57;10.67;;;2.90;;
10295;SDS011;5193;51.032;6.356;2023-03-05T05:16:22;10.03;;;2.80;;
10295;SDS011;5193;51.032;6.356;2023-03-05T05:18:48;8.33;;;2.50;;
10295;SDS011;5193;51.032;6.356;2023-03-05T05:21:14;6.87;;;2.57;;
10295;SDS011;5193;51.032;6.356;2023-03-05T05:23:40;9.60;;;2.50;;
10295;SDS011;5193;51.032;6.356;2023-03-05T05:26:06;4.63;;;1.43;;
10295;SDS011;5193;51.032;6.356;2023-03-05T05:28:33;5.37;;;1.33;;
10295;SDS011;5193;51.032;6.356;2023-03-05T05:30:59;4.20;;;1.20;;
10295;SDS011;5193;51.032;6.356;2023-03-05T05:33:25;4.53;;;1.50;;
10295;SDS011;5193;51.032;6.356;2023-03-05T05:35:51;2.93;;;1.13;;
10295;SDS011;5193;51.032;6.356;2023-03-05T05:38:17;3.67;;;1.00;;
10295;SDS011;5193;51.032;6.356;2023-03-05T05:40:42;1.93;;;1.03;;
10295;SDS011;5193;51.032;6.356;2023-03-05T05:43:08;2.50;;;0.97;;
10295;SDS011;5193;51.032;6.356;2023-03-05T05:45:36;5.83;;;1.20;;
10295;SDS011;5193;51.032;6.356;2023-03-05T05:48:02;4.70;;;1.23;;
10295;SDS011;5193;51.032;6.356;2023-03-05T05:50:28;4.20;;;1.40;;
10295;SDS011;5193;51.032;6.356;2023-03-05T05:52:54;7.43;;;1.80;;
10295;SDS011;5193;51.032;6.356;2023-03-05T05:55:19;8.13;;;2.03;;
10295;SDS011;5193;51.032;6.356;2023-03-05T05:57:45;4.53;;;1.60;;
10295;SDS011;5193;51.032;6.356;2023-03-05T06:00:11;8.23;;;2.33;;
10295;SDS011;5193;51.032;6.356;2023-03-05T06:02:39;5.40;;;2.10;;
10295;SDS011;5193;51.032;6.356;2023-03-05T06:05:06;7.70;;;2.43;;
10295;SDS011;5193;51.032;6.356;2023-03-05T06:07:33;8.17;;;2.50;;
10295;SDS011;5193;51.032;6.356;2023-03-05T06:09:59;9.63;;;3.00;;
10295;SDS011;5193;51.032;6.356;2023-03-05T06:12:25;10.73;;;2.80;;
10295;SDS011;5193;51.032;6.356;2023-03-05T06:14:50;6.40;;;2.80;;
10295;SDS011;5193;51.032;6.356;2023-03-05T06:17:18;8.83;;;2.90;;
10295;SDS011;5193;51.032;6.356;2023-03-05T06:19:43;9.83;;;2.50;;
10295;SDS011;5193;51.032;6.356;2023-03-05T06:22:09;6.10;;;2.50;;
10295;SDS011;5193;51.032;6.356;2023-03-05T06:24:36;5.33;;;2.60;;
10295;SDS011;5193;51.032;6.356;2023-03-05T06:27:02;8.70;;;2.73;;
10295;SDS011;5193;51.032;6.356;2023-03-05T06:29:28;5.83;;;2.30;;
10295;SDS011;5193;51.032;6.356;2023-03-05T06:31:54;7.73;;;2.63;;
10295;SDS011;5193;51.032;6.356;2023-03-05T06:34:20;7.77;;;2.47;;
10295;SDS011;5193;51.032;6.356;2023-03-05T06:36:45;6.37;;;2.50;;
10295;SDS011;5193;51.032;6.356;2023-03-05T06:39:11;6.53;;;2.00;;
10295;SDS011;5193;51.032;6.356;2023-03-05T06:41:37;3.90;;;2.20;;
10295;SDS011;5193;51.032;6.356;2023-03-05T06:44:02;5.63;;;2.30;;
10295;SDS011;5193;51.032;6.356;2023-03-05T06:46:29;6.50;;;2.17;;
10295;SDS011;5193;51.032;6.356;2023-03-05T06:48:59;6.63;;;2.40;;
10295;SDS011;5193;51.032;6.356;2023-03-05T06:51:29;8.23;;;2.13;;
10295;SDS011;5193;51.032;6.356;2023-03-05T06:53:58;8.17;;;2.30;;
10295;SDS011;5193;51.032;6.356;2023-03-05T06:56:26;7.90;;;2.97;;
10295;SDS011;5193;51.032;6.356;2023-03-05T06:58:51;9.87;;;3.03;;
10295;SDS011;5193;51.032;6.356;2023-03-05T07:01:18;8.23;;;2.83;;
10295;SDS011;5193;51.032;6.356;2023-03-05T07:03:47;8.30;;;2.90;;
10295;SDS011;5193;51.032;6.356;2023-03-05T07:06:18;7.40;;;2.40;;
10295;SDS011;5193;51.032;6.356;2023-03-05T07:08:44;12.00;;;3.10;;
10295;SDS011;5193;51.032;6.356;2023-03-05T07:11:10;8.47;;;2.93;;
10295;SDS011;5193;51.032;6.356;2023-03-05T07:13:37;10.03;;;2.77;;
10295;SDS011;5193;51.032;6.356;2023-03-05T07:16:06;6.87;;;2.73;;
10295;SDS011;5193;51.032;6.356;2023-03-05T07:18:32;9.90;;;2.73;;
10295;SDS011;5193;51.032;6.356;2023-03-05T07:21:02;12.77;;;2.80;;
10295;SDS011;5193;51.032;6.356;2023-03-05T07:23:28;8.30;;;3.10;;
10295;SDS011;5193;51.032;6.356;2023-03-05T07:25:54;12.27;;;3.27;;
10295;SDS011;5193;51.032;6.356;2023-03-05T07:28:20;9.17;;;3.00;;
10295;SDS011;5193;51.032;6.356;2023-03-05T07:30:53;12.17;;;3.27;;
10295;SDS011;5193;51.032;6.356;2023-03-05T07:33:29;17.10;;;3.30;;
10295;SDS011;5193;51.032;6.356;2023-03-05T07:35:56;9.77;;;3.10;;
10295;SDS011;5193;51.032;6.356;2023-03-05T07:38:22;7.53;;;2.97;;
10295;SDS011;5193;51.032;6.356;2023-03-05T07:40:48;9.17;;;3.30;;
10295;SDS011;5193;51.032;6.356;2023-03-05T07:43:14;15.63;;;3.87;;
10295;SDS011;5193;51.032;6.356;2023-03-05T07:45:41;12.40;;;3.20;;
10295;SDS011;5193;51.032;6.356;2023-03-05T07:48:08;12.17;;;3.80;;
10295;SDS011;5193;51.032;6.356;2023-03-05T07:50:37;7.13;;;3.50;;
10295;SDS011;5193;51.032;6.356;2023-03-05T07:53:03;9.37;;;4.07;;
10295;SDS011;5193;51.032;6.356;2023-03-05T07:55:29;7.67;;;3.13;;
10295;SDS011;5193;51.032;6.356;2023-03-05T07:57:54;10.50;;;4.00;;
10295;SDS011;5193;51.032;6.356;2023-03-05T08:00:20;11.47;;;4.07;;
10295;SDS011;5193;51.032;6.356;2023-03-05T08:02:46;14.90;;;4.23;;
10295;SDS011;5193;51.032;6.356;2023-03-05T08:05:12;9.83;;;4.10;;
10295;SDS011;5193;51.032;6.356;2023-03-05T08:07:38;12.90;;;4.17;;
10295;SDS011;5193;51.032;6.356;2023-03-05T08:10:03;7.27;;;3.50;;
10295;SDS011;5193;51.032;6.356;2023-03-05T08:12:29;9.77;;;3.77;;
10295;SDS011;5193;51.032;6.356;2023-03-05T08:14:55;14.93;;;4.90;;
10295;SDS011;5193;51.032;6.356;2023-03-05T08:17:21;9.40;;;3.40;;
10295;SDS011;5193;51.032;6.356;2023-03-05T08:19:46;11.20;;;3.50;;
10295;SDS011;5193;51.032;6.356;2023-03-05T08:22:12;8.23;;;3.30;;
10295;SDS011;5193;51.032;6.356;2023-03-05T08:24:40;12.83;;;3.67;;
10295;SDS011;5193;51.032;6.356;2023-03-05T08:27:06;7.83;;;3.60;;
10295;SDS011;5193;51.032;6.356;2023-03-05T08:29:31;15.73;;;4.43;;
10295;SDS011;5193;51.032;6.356;2023-03-05T08:31:57;14.43;;;4.20;;
10295;SDS011;5193;51.032;6.356;2023-03-05T08:34:23;15.43;;;4.10;;
10295;SDS011;5193;51.032;6.356;2023-03-05T08:36:48;11.27;;;4.33;;
10295;SDS011;5193;51.032;6.356;2023-03-05T08:39:14;13.43;;;4.17;;
10295;SDS011;5193;51.032;6.356;2023-03-05T08:41:40;10.97;;;4.30;;
10295;SDS011;5193;51.032;6.356;2023-03-05T08:44:06;13.47;;;4.47;;
10295;SDS011;5193;51.032;6.356;2023-03-05T08:46:32;8.17;;;4.27;;
10295;SDS011;5193;51.032;6.356;2023-03-05T08:48:57;12.20;;;4.50;;
10295;SDS011;5193;51.032;6.356;2023-03-05T08:51:23;12.80;;;4.00;;
10295;SDS011;5193;51.032;6.356;2023-03-05T08:53:50;9.73;;;4.53;;
10295;SDS011;5193;51.032;6.356;2023-03-05T08:56:16;9.93;;;4.60;;
10295;SDS011;5193;51.032;6.356;2023-03-05T08:58:43;11.70;;;5.17;;
10295;SDS011;5193;51.032;6.356;2023-03-05T09:01:10;13.97;;;4.50;;
10295;SDS011;5193;51.032;6.356;2023-03-05T09:03:36;10.90;;;4.87;;
10295;SDS011;5193;51.032;6.356;2023-03-05T09:06:03;11.53;;;4.57;;
10295;SDS011;5193;51.032;6.356;2023-03-05T09:08:32;16.40;;;5.27;;
10295;SDS011;5193;51.032;6.356;2023-03-05T09:10:57;11.57;;;4.77;;
10295;SDS011;5193;51.032;6.356;2023-03-05T09:13:26;15.40;;;5.20;;
10295;SDS011;5193;51.032;6.356;2023-03-05T09:16:00;11.63;;;5.03;;
10295;SDS011;5193;51.032;6.356;2023-03-05T09:18:27;10.23;;;5.83;;
10295;SDS011;5193;51.032;6.356;2023-03-05T09:20:53;11.63;;;6.83;;
10295;SDS011;5193;51.032;6.356;2023-03-05T09:23:20;14.97;;;7.53;;
10295;SDS011;5193;51.032;6.356;2023-03-05T09:25:47;10.60;;;6.00;;
10295;SDS011;5193;51.032;6.356;2023-03-05T09:28:13;12.87;;;6.63;;
10295;SDS011;5193;51.032;6.356;2023-03-05T09:30:39;10.37;;;5.93;;
10295;SDS011;5193;51.032;6.356;2023-03-05T09:33:04;12.87;;;6.80;;
10295;SDS011;5193;51.032;6.356;2023-03-05T09:35:32;6.77;;;4.00;;
10295;SDS011;5193;51.032;6.356;2023-03-05T09:38:00;9.93;;;5.80;;
10295;SDS011;5193;51.032;6.356;2023-03-05T09:40:26;10.13;;;5.57;;
10295;SDS011;5193;51.032;6.356;2023-03-05T09:43:24;9.40;;;6.40;;
10295;SDS011;5193;51.032;6.356;2023-03-05T09:46:23;8.40;;;5.70;;
10295;SDS011;5193;51.032;6.356;2023-03-05T09:49:17;7.23;;;4.20;;
10295;SDS011;5193;51.032;6.356;2023-03-05T09:52:19;7.03;;;5.00;;
10295;SDS011;5193;51.032;6.356;2023-03-05T09:54:48;9.97;;;5.73;;
10295;SDS011;5193;51.032;6.356;2023-03-05T09:57:20;9.57;;;5.93;;
10295;SDS011;5193;51.032;6.356;2023-03-05T09:59:50;8.27;;;5.80;;
10295;SDS011;5193;51.032;6.356;2023-03-05T10:02:33;9.17;;;6.33;;
10295;SDS011;5193;51.032;6.356;2023-03-05T10:07:45;9.33;;;6.47;;
10295;SDS011;5193;51.032;6.356;2023-03-05T10:10:22;13.30;;;7.23;;
10295;SDS011;5193;51.032;6.356;2023-03-05T10:12:55;9.97;;;6.60;;
10295;SDS011;5193;51.032;6.356;2023-03-05T10:15:31;9.13;;;6.77;;
10295;SDS011;5193;51.032;6.356;2023-03-05T10:21:07;13.67;;;8.03;;
10295;SDS011;5193;51.032;6.356;2023-03-05T10:26:29;13.17;;;7.20;;
10295;SDS011;5193;51.032;6.356;2023-03-05T10:35:03;11.40;;;7.53;;
10295;SDS011;5193;51.032;6.356;2023-03-05T10:45:35;13.87;;;9.43;;
10295;SDS011;5193;51.032;6.356;2023-03-05T10:50:37;11.53;;;8.67;;
10295;SDS011;5193;51.032;6.356;2023-03-05T10:55:59;16.03;;;10.10;;
10295;SDS011;5193;51.032;6.356;2023-03-05T10:58:29;12.97;;;9.33;;
10295;SDS011;5193;51.032;6.356;2023-03-05T11:03:50;14.17;;;9.87;;
10295;SDS011;5193;51.032;6.356;2023-03-05T11:06:28;15.13;;;9.63;;
10295;SDS011;5193;51.032;6.356;2023-03-05T11:08:54;16.03;;;9.90;;
10295;SDS011;5193;51.032;6.356;2023-03-05T11:11:20;11.23;;;9.13;;
10295;SDS011;5193;51.032;6.356;2023-03-05T11:13:52;16.97;;;10.10;;
10295;SDS011;5193;51.032;6.356;2023-03-05T11:16:26;13.87;;;9.53;;
10295;SDS011;5193;51.032;6.356;2023-03-05T11:21:37;12.80;;;8.90;;
10295;SDS011;5193;51.032;6.356;2023-03-05T11:24:14;13.73;;;9.87;;
10295;SDS011;5193;51.032;6.356;2023-03-05T11:26:46;15.67;;;9.77;;
10295;SDS011;5193;51.032;6.356;2023-03-05T11:29:18;13.63;;;8.93;;
10295;SDS011;5193;51.032;6.356;2023-03-05T11:31:51;10.33;;;7.60;;
10295;SDS011;5193;51.032;6.356;2023-03-05T11:39:17;11.67;;;7.93;;
10295;SDS011;5193;51.032;6.356;2023-03-05T11:41:50;13.50;;;8.63;;
10295;SDS011;5193;51.032;6.356;2023-03-05T11:44:27;14.33;;;8.70;;
10295;SDS011;5193;51.032;6.356;2023-03-05T11:50:00;10.57;;;7.23;;
10295;SDS011;5193;51.032;6.356;2023-03-05T11:53:10;12.53;;;6.80;;
10295;SDS011;5193;51.032;6.356;2023-03-05T11:55:35;9.97;;;6.70;;
10295;SDS011;5193;51.032;6.356;2023-03-05T12:01:00;11.67;;;7.07;;
10295;SDS011;5193;51.032;6.356;2023-03-05T12:03:36;9.90;;;6.60;;
10295;SDS011;5193;51.032;6.356;2023-03-05T12:06:09;7.33;;;6.10;;
10295;SDS011;5193;51.032;6.356;2023-03-05T12:08:43;7.53;;;5.90;;
10295;SDS011;5193;51.032;6.356;2023-03-05T12:11:14;9.47;;;5.67;;
10295;SDS011;5193;51.032;6.356;2023-03-05T12:14:09;7.20;;;5.47;;
10295;SDS011;5193;51.032;6.356;2023-03-05T12:17:03;8.73;;;5.77;;
10295;SDS011;5193;51.032;6.356;2023-03-05T12:22:22;8.67;;;5.13;;
10295;SDS011;5193;51.032;6.356;2023-03-05T12:24:49;9.10;;;5.33;;
10295;SDS011;5193;51.032;6.356;2023-03-05T12:27:31;6.63;;;5.07;;
10295;SDS011;5193;51.032;6.356;2023-03-05T12:30:00;7.27;;;4.90;;
10295;SDS011;5193;51.032;6.356;2023-03-05T12:47:34;6.73;;;3.47;;
10295;SDS011;5193;51.032;6.356;2023-03-05T12:50:00;5.53;;;3.97;;
10295;SDS011;5193;51.032;6.356;2023-03-05T12:52:28;6.47;;;3.57;;
10295;SDS011;5193;51.032;6.356;2023-03-05T12:55:45;11.40;;;5.43;;
10295;SDS011;5193;51.032;6.356;2023-03-05T12:57:52;9.77;;;5.93;;
10295;SDS011;5193;51.032;6.356;2023-03-05T13:00:29;7.57;;;5.27;;
10295;SDS011;5193;51.032;6.356;2023-03-05T13:03:03;9.07;;;4.50;;
10295;SDS011;5193;51.032;6.356;2023-03-05T13:05:35;8.03;;;6.00;;
10295;SDS011;5193;51.032;6.356;2023-03-05T13:10:53;7.23;;;3.93;;
10295;SDS011;5193;51.032;6.356;2023-03-05T13:13:21;5.37;;;3.80;;
10295;SDS011;5193;51.032;6.356;2023-03-05T13:15:50;7.87;;;6.60;;
10295;SDS011;5193;51.032;6.356;2023-03-05T13:18:20;8.57;;;5.90;;
10295;SDS011;5193;51.032;6.356;2023-03-05T13:20:58;9.10;;;6.40;;
10295;SDS011;5193;51.032;6.356;2023-03-05T13:23:26;9.97;;;5.47;;
10295;SDS011;5193;51.032;6.356;2023-03-05T13:25:57;11.03;;;6.33;;
10295;SDS011;5193;51.032;6.356;2023-03-05T13:28:39;8.83;;;5.13;;
10295;SDS011;5193;51.032;6.356;2023-03-05T13:31:11;7.50;;;5.37;;
10295;SDS011;5193;51.032;6.356;2023-03-05T13:33:48;8.03;;;5.10;;
10295;SDS011;5193;51.032;6.356;2023-03-05T13:36:20;6.53;;;4.83;;
10295;SDS011;5193;51.032;6.356;2023-03-05T13:38:47;8.97;;;5.07;;
10295;SDS011;5193;51.032;6.356;2023-03-05T13:43:47;6.67;;;4.93;;
10295;SDS011;5193;51.032;6.356;2023-03-05T13:48:55;7.60;;;4.80;;
10295;SDS011;5193;51.032;6.356;2023-03-05T13:51:22;9.17;;;5.80;;
10295;SDS011;5193;51.032;6.356;2023-03-05T13:53:48;8.00;;;5.30;;
10295;SDS011;5193;51.032;6.356;2023-03-05T13:56:16;12.47;;;6.50;;
10295;SDS011;5193;51.032;6.356;2023-03-05T13:58:44;8.90;;;5.00;;
10295;SDS011;5193;51.032;6.356;2023-03-05T14:01:30;8.50;;;6.10;;
10295;SDS011;5193;51.032;6.356;2023-03-05T14:04:07;14.83;;;9.00;;
10295;SDS011;5193;51.032;6.356;2023-03-05T14:09:20;14.90;;;7.80;;
10295;SDS011;5193;51.032;6.356;2023-03-05T14:14:59;7.70;;;5.60;;
10295;SDS011;5193;51.032;6.356;2023-03-05T14:22:53;11.97;;;6.53;;
10295;SDS011;5193;51.032;6.356;2023-03-05T14:25:28;13.20;;;9.83;;
10295;SDS011;5193;51.032;6.356;2023-03-05T14:28:05;7.80;;;6.57;;
10295;SDS011;5193;51.032;6.356;2023-03-05T14:30:43;9.30;;;7.97;;
10295;SDS011;5193;51.032;6.356;2023-03-05T14:33:19;10.07;;;7.50;;
10295;SDS011;5193;51.032;6.356;2023-03-05T14:35:48;9.47;;;6.87;;
10295;SDS011;5193;51.032;6.356;2023-03-05T14:38:25;12.70;;;9.00;;
10295;SDS011;5193;51.032;6.356;2023-03-05T14:40:53;9.43;;;7.70;;
10295;SDS011;5193;51.032;6.356;2023-03-05T14:43:19;13.20;;;10.70;;
10295;SDS011;5193;51.032;6.356;2023-03-05T14:45:45;14.97;;;10.40;;
10295;SDS011;5193;51.032;6.356;2023-03-05T14:48:12;20.47;;;15.17;;
10295;SDS011;5193;51.032;6.356;2023-03-05T14:50:43;22.33;;;16.57;;
10295;SDS011;5193;51.032;6.356;2023-03-05T14:53:17;12.60;;;8.93;;
10295;SDS011;5193;51.032;6.356;2023-03-05T14:55:50;10.63;;;8.90;;
10295;SDS011;5193;51.032;6.356;2023-03-05T14:58:20;12.10;;;7.93;;
10295;SDS011;5193;51.032;6.356;2023-03-05T15:00:49;9.43;;;7.77;;
10295;SDS011;5193;51.032;6.356;2023-03-05T15:03:19;15.60;;;9.00;;
10295;SDS011;5193;51.032;6.356;2023-03-05T15:05:46;8.33;;;7.30;;
10295;SDS011;5193;51.032;6.356;2023-03-05T15:08:16;10.03;;;7.37;;
10295;SDS011;5193;51.032;6.356;2023-03-05T15:10:49;10.83;;;8.03;;
10295;SDS011;5193;51.032;6.356;2023-03-05T15:13:15;10.37;;;7.40;;
10295;SDS011;5193;51.032;6.356;2023-03-05T15:15:42;9.47;;;6.93;;
10295;SDS011;5193;51.032;6.356;2023-03-05T15:18:09;13.00;;;7.73;;
10295;SDS011;5193;51.032;6.356;2023-03-05T15:20:40;15.33;;;10.20;;
10295;SDS011;5193;51.032;6.356;2023-03-05T15:23:07;13.00;;;9.23;;
10295;SDS011;5193;51.032;6.356;2023-03-05T15:25:33;11.20;;;8.30;;
10295;SDS011;5193;51.032;6.356;2023-03-05T15:27:59;10.57;;;9.10;;
10295;SDS011;5193;51.032;6.356;2023-03-05T15:30:29;10.30;;;7.80;;
10295;SDS011;5193;51.032;6.356;2023-03-05T15:33:01;12.43;;;9.13;;
10295;SDS011;5193;51.032;6.356;2023-03-05T15:35:28;16.93;;;9.67;;
10295;SDS011;5193;51.032;6.356;2023-03-05T15:37:54;12.83;;;8.43;;
10295;SDS011;5193;51.032;6.356;2023-03-05T15:40:20;10.40;;;7.97;;
10295;SDS011;5193;51.032;6.356;2023-03-05T15:42:46;13.10;;;7.53;;
10295;SDS011;5193;51.032;6.356;2023-03-05T15:45:12;10.10;;;8.57;;
10295;SDS011;5193;51.032;6.356;2023-03-05T15:47:38;8.50;;;6.87;;
10295;SDS011;5193;51.032;6.356;2023-03-05T15:50:04;10.87;;;8.20;;
10295;SDS011;5193;51.032;6.356;2023-03-05T15:52:30;8.73;;;7.13;;
10295;SDS011;5193;51.032;6.356;2023-03-05T15:54:56;8.77;;;6.83;;
10295;SDS011;5193;51.032;6.356;2023-03-05T15:57:23;9.93;;;7.03;;
10295;SDS011;5193;51.032;6.356;2023-03-05T15:59:48;9.07;;;6.33;;
10295;SDS011;5193;51.032;6.356;2023-03-05T16:02:14;13.13;;;8.33;;
10295;SDS011;5193;51.032;6.356;2023-03-05T16:04:40;11.57;;;6.20;;
10295;SDS011;5193;51.032;6.356;2023-03-05T16:07:05;8.33;;;6.30;;
10295;SDS011;5193;51.032;6.356;2023-03-05T16:09:36;10.83;;;7.40;;
10295;SDS011;5193;51.032;6.356;2023-03-05T16:12:06;7.10;;;5.83;;
10295;SDS011;5193;51.032;6.356;2023-03-05T16:14:35;10.13;;;7.67;;
10295;SDS011;5193;51.032;6.356;2023-03-05T16:17:02;9.67;;;8.07;;
10295;SDS011;5193;51.032;6.356;2023-03-05T16:19:29;7.03;;;5.30;;
10295;SDS011;5193;51.032;6.356;2023-03-05T16:21:55;9.03;;;5.30;;
10295;SDS011;5193;51.032;6.356;2023-03-05T16:24:21;7.67;;;5.70;;
10295;SDS011;5193;51.032;6.356;2023-03-05T16:26:46;8.13;;;6.50;;